createdAt,value
2019-05-29T00:02:00.394Z,7.10
2019-05-29T00:04:30.632Z,7.10
2019-05-29T00:07:01.134Z,7.10
2019-05-29T00:09:31.501Z,7.10
2019-05-29T00:12:01.789Z,7.00
2019-05-29T00:14:32.193Z,7.00
2019-05-29T00:17:02.475Z,7.10
2019-05-29T00:19:32.950Z,7.10
2019-05-29T00:22:03.370Z,7.00
2019-05-29T00:24:33.481Z,6.90
2019-05-29T00:27:03.684Z,6.90
2019-05-29T00:29:33.932Z,6.90
2019-05-29T00:32:04.218Z,6.90
2019-05-29T00:34:36.487Z,6.80
2019-05-29T00:37:08.409Z,6.80
2019-05-29T00:39:38.710Z,6.70
2019-05-29T00:42:08.991Z,6.70
2019-05-29T00:44:39.231Z,6.70
2019-05-29T00:47:09.682Z,6.70
2019-05-29T00:49:39.960Z,6.70
2019-05-29T00:52:10.231Z,6.70
2019-05-29T00:54:40.447Z,6.60
2019-05-29T00:57:10.907Z,6.60
2019-05-29T00:59:41.212Z,6.70
2019-05-29T01:02:11.895Z,6.60
2019-05-29T01:04:42.274Z,6.70
2019-05-29T01:07:14.071Z,6.70
2019-05-29T01:09:44.558Z,6.60
2019-05-29T01:12:14.887Z,6.60
2019-05-29T01:14:50.076Z,6.60
2019-05-29T01:17:17.671Z,6.50
2019-05-29T01:19:48.105Z,6.50
2019-05-29T01:22:18.661Z,6.50
2019-05-29T01:24:49.067Z,6.50
2019-05-29T01:27:19.275Z,6.40
2019-05-29T01:29:49.627Z,6.30
2019-05-29T01:32:19.763Z,6.30
2019-05-29T01:34:50.335Z,6.30
2019-05-29T01:37:20.487Z,6.30
2019-05-29T01:39:50.646Z,6.30
2019-05-29T01:42:21.481Z,6.20
2019-05-29T01:45:06.470Z,6.20
2019-05-29T01:47:24.049Z,6.20
2019-05-29T01:49:54.371Z,6.10
2019-05-29T01:52:24.628Z,6.10
2019-05-29T01:54:55.036Z,6.10
2019-05-29T01:57:25.258Z,6.20
2019-05-29T01:59:55.502Z,6.10
2019-05-29T02:02:28.148Z,6.10
2019-05-29T02:04:58.504Z,6.00
2019-05-29T02:07:28.797Z,6.00
2019-05-29T02:09:59.125Z,6.00
2019-05-29T02:12:29.434Z,6.00
2019-05-29T02:14:59.472Z,6.00
2019-05-29T02:17:29.886Z,5.90
2019-05-29T02:20:00.292Z,6.00
2019-05-29T02:22:30.596Z,5.90
2019-05-29T02:25:00.891Z,5.90
2019-05-29T02:27:31.162Z,5.90
2019-05-29T02:30:01.875Z,5.90
2019-05-29T02:32:32.440Z,5.90
2019-05-29T02:35:02.785Z,5.80
2019-05-29T02:37:33.206Z,5.80
2019-05-29T02:40:05.158Z,5.80
2019-05-29T02:42:35.506Z,5.70
2019-05-29T02:45:08.173Z,5.70
2019-05-29T02:47:38.519Z,5.70
2019-05-29T02:50:09.647Z,5.70
2019-05-29T02:52:40.004Z,5.70
2019-05-29T02:55:11.844Z,5.70
2019-05-29T02:57:41.910Z,5.70
2019-05-29T03:00:12.592Z,5.70
2019-05-29T03:02:44.889Z,5.70
2019-05-29T03:05:15.463Z,5.70
2019-05-29T03:07:45.798Z,5.70
2019-05-29T03:10:16.471Z,5.70
2019-05-29T03:12:46.671Z,5.60
2019-05-29T03:15:18.268Z,5.60
2019-05-29T03:17:50.934Z,5.70
2019-05-29T03:20:21.674Z,5.70
2019-05-29T03:22:51.767Z,5.60
2019-05-29T03:25:22.409Z,5.60
2019-05-29T03:27:53.491Z,5.60
2019-05-29T03:30:23.859Z,5.60
2019-05-29T03:32:54.264Z,5.60
2019-05-29T03:35:27.263Z,5.60
2019-05-29T03:37:58.822Z,5.60
2019-05-29T03:40:28.961Z,5.60
2019-05-29T03:43:00.129Z,5.60
2019-05-29T03:45:31.293Z,5.60
2019-05-29T03:48:02.481Z,5.60
2019-05-29T03:50:34.531Z,5.70
2019-05-29T03:53:04.687Z,5.70
2019-05-29T03:55:36.044Z,5.70
2019-05-29T03:58:06.753Z,5.70
2019-05-29T04:00:45.968Z,5.80
2019-05-29T04:03:13.653Z,5.80
2019-05-29T04:05:43.848Z,5.80
2019-05-29T04:08:14.475Z,5.80
2019-05-29T04:10:44.947Z,5.80
2019-05-29T04:13:15.398Z,5.90
2019-05-29T04:15:47.423Z,5.90
2019-05-29T04:18:20.056Z,5.90
2019-05-29T04:20:52.092Z,6.10
2019-05-29T04:23:24.258Z,6.40
2019-05-29T04:25:56.860Z,6.60
2019-05-29T04:28:30.072Z,6.60
2019-05-29T04:31:00.328Z,6.60
2019-05-29T04:33:32.462Z,6.50
2019-05-29T04:36:02.945Z,6.40
2019-05-29T04:38:35.479Z,6.40
2019-05-29T04:41:05.782Z,6.40
2019-05-29T04:43:37.488Z,6.40
2019-05-29T04:46:08.150Z,6.40
2019-05-29T04:48:40.317Z,6.50
2019-05-29T04:51:10.775Z,6.60
2019-05-29T04:53:41.163Z,6.70
2019-05-29T04:56:11.374Z,6.90
2019-05-29T04:58:41.771Z,7.10
2019-05-29T05:01:12.223Z,7.10
2019-05-29T05:03:42.986Z,7.20
2019-05-29T05:06:13.417Z,7.20
2019-05-29T05:08:43.678Z,7.30
2019-05-29T05:11:14.432Z,7.30
2019-05-29T05:13:44.435Z,7.30
2019-05-29T05:16:14.791Z,7.40
2019-05-29T05:18:44.887Z,7.40
2019-05-29T05:21:15.141Z,7.50
2019-05-29T05:23:45.661Z,7.60
2019-05-29T05:26:16.184Z,7.70
2019-05-29T05:28:46.923Z,7.90
2019-05-29T05:31:17.955Z,8.00
2019-05-29T05:33:48.086Z,8.40
2019-05-29T05:36:18.573Z,9.20
2019-05-29T05:38:48.971Z,10.10
2019-05-29T05:41:19.507Z,11.00
2019-05-29T05:43:49.812Z,11.80
2019-05-29T05:46:20.029Z,12.60
2019-05-29T05:48:50.264Z,13.40
2019-05-29T05:51:20.613Z,14.00
2019-05-29T05:53:51.108Z,14.30
2019-05-29T05:56:21.424Z,14.50
2019-05-29T05:58:53.192Z,14.80
2019-05-29T06:01:23.515Z,15.00
2019-05-29T06:03:53.933Z,15.50
2019-05-29T06:06:24.296Z,15.80
2019-05-29T06:08:54.962Z,16.00
2019-05-29T06:11:25.548Z,16.20
2019-05-29T06:13:56.076Z,16.40
2019-05-29T06:16:26.535Z,16.50
2019-05-29T06:18:57.004Z,16.60
2019-05-29T06:21:27.648Z,16.90
2019-05-29T06:23:58.101Z,17.30
2019-05-29T06:26:28.518Z,17.60
2019-05-29T06:28:58.922Z,17.80
2019-05-29T06:31:29.265Z,17.70
2019-05-29T06:33:59.636Z,18.00
2019-05-29T06:36:29.997Z,17.60
2019-05-29T06:39:00.334Z,17.60
2019-05-29T06:41:30.663Z,17.60
2019-05-29T06:44:00.867Z,18.00
2019-05-29T06:46:31.327Z,18.50
2019-05-29T06:49:01.440Z,18.80
2019-05-29T06:51:31.467Z,18.50
2019-05-29T06:54:01.552Z,18.50
2019-05-29T06:56:31.670Z,18.30
2019-05-29T06:59:01.983Z,17.30
2019-05-29T07:01:32.539Z,17.10
2019-05-29T07:04:12.068Z,17.60
2019-05-29T07:06:34.797Z,18.20
2019-05-29T07:09:06.798Z,18.80
2019-05-29T07:11:37.387Z,19.10
2019-05-29T07:14:07.962Z,18.50
2019-05-29T07:16:46.375Z,18.10
2019-05-29T07:19:25.288Z,18.20
2019-05-29T07:21:42.820Z,18.00
2019-05-29T07:24:13.402Z,17.30
2019-05-29T07:26:45.186Z,16.60
2019-05-29T07:29:15.715Z,16.00
2019-05-29T07:31:47.264Z,15.90
2019-05-29T07:34:18.230Z,16.10
2019-05-29T07:36:48.573Z,15.80
2019-05-29T07:39:20.397Z,16.30
2019-05-29T07:41:50.555Z,17.60
2019-05-29T07:44:20.781Z,18.60
2019-05-29T07:46:51.052Z,18.80
2019-05-29T07:49:37.885Z,18.80
2019-05-29T07:51:53.421Z,18.40
2019-05-29T07:54:23.913Z,18.50
2019-05-29T07:56:54.558Z,19.60
2019-05-29T07:59:24.834Z,20.00
2019-05-29T08:01:55.249Z,20.70
2019-05-29T08:04:25.639Z,21.40
2019-05-29T08:06:56.256Z,21.50
2019-05-29T08:09:26.438Z,20.80
2019-05-29T08:11:56.794Z,19.90
2019-05-29T08:14:29.254Z,18.70
2019-05-29T08:16:59.252Z,18.00
2019-05-29T08:19:29.366Z,17.50
2019-05-29T08:21:59.435Z,16.60
2019-05-29T08:24:29.643Z,16.00
2019-05-29T08:27:00.101Z,15.50
2019-05-29T08:29:31.806Z,15.60
2019-05-29T08:32:02.413Z,17.10
2019-05-29T08:34:32.604Z,18.60
2019-05-29T08:37:07.150Z,19.30
2019-05-29T08:39:36.961Z,18.90
2019-05-29T08:42:22.397Z,18.10
2019-05-29T08:44:39.522Z,17.80
2019-05-29T08:47:10.955Z,18.00
2019-05-29T08:49:41.832Z,18.80
2019-05-29T08:52:12.789Z,19.50
2019-05-29T08:54:43.966Z,19.60
2019-05-29T08:57:14.699Z,19.40
2019-05-29T08:59:46.328Z,19.40
2019-05-29T09:02:17.170Z,19.20
2019-05-29T09:04:49.707Z,18.70
2019-05-29T09:07:20.058Z,17.70
2019-05-29T09:09:51.234Z,17.10
2019-05-29T09:12:22.277Z,16.80
2019-05-29T09:14:53.277Z,16.20
2019-05-29T09:17:24.374Z,16.00
2019-05-29T09:19:55.195Z,16.10
2019-05-29T09:22:25.870Z,16.50
2019-05-29T09:24:56.737Z,17.80
2019-05-29T09:27:26.996Z,18.70
2019-05-29T09:29:57.289Z,19.10
2019-05-29T09:32:48.360Z,19.70
2019-05-29T09:34:59.851Z,20.50
2019-05-29T09:37:30.291Z,20.60
2019-05-29T09:40:00.448Z,20.80
2019-05-29T09:42:30.950Z,20.50
2019-05-29T09:45:01.256Z,20.80
2019-05-29T09:47:31.483Z,20.70
2019-05-29T09:50:01.912Z,20.60
2019-05-29T09:52:32.216Z,21.10
2019-05-29T09:55:02.653Z,21.80
2019-05-29T09:57:33.138Z,21.40
2019-05-29T10:00:04.354Z,20.50
2019-05-29T10:02:34.867Z,19.90
2019-05-29T10:05:06.983Z,19.30
2019-05-29T10:07:37.942Z,19.00
2019-05-29T10:10:13.159Z,18.50
2019-05-29T10:12:43.445Z,18.00
2019-05-29T10:15:14.673Z,17.50
2019-05-29T10:17:44.990Z,17.00
2019-05-29T10:20:16.115Z,16.80
2019-05-29T10:22:46.331Z,16.70
2019-05-29T10:25:17.245Z,16.60
2019-05-29T10:27:48.130Z,16.50
2019-05-29T10:30:20.083Z,16.50
2019-05-29T10:32:50.535Z,16.60
2019-05-29T10:35:21.016Z,16.90
2019-05-29T10:37:52.842Z,17.00
2019-05-29T10:40:23.909Z,17.00
2019-05-29T10:42:54.708Z,17.00
2019-05-29T10:45:25.689Z,16.90
2019-05-29T10:47:56.396Z,16.70
2019-05-29T10:50:26.815Z,16.10
2019-05-29T10:52:57.167Z,15.90
2019-05-29T10:55:27.609Z,15.80
2019-05-29T10:57:58.248Z,15.80
2019-05-29T11:00:28.825Z,15.80
2019-05-29T11:02:59.002Z,16.90
2019-05-29T11:05:29.233Z,17.90
2019-05-29T11:07:59.378Z,18.60
2019-05-29T11:10:29.602Z,18.90
2019-05-29T11:12:59.926Z,19.60
2019-05-29T11:15:30.045Z,20.10
2019-05-29T11:18:00.204Z,19.90
2019-05-29T11:20:31.118Z,19.90
2019-05-29T11:23:01.328Z,20.10
2019-05-29T11:25:31.755Z,19.80
2019-05-29T11:28:02.010Z,19.30
2019-05-29T11:30:32.584Z,19.00
2019-05-29T11:33:03.158Z,18.90
2019-05-29T11:35:33.603Z,18.50
2019-05-29T11:38:04.028Z,18.30
2019-05-29T11:40:34.649Z,18.60
2019-05-29T11:43:05.059Z,19.40
2019-05-29T11:45:35.791Z,20.00
2019-05-29T11:48:06.540Z,20.60
2019-05-29T11:50:36.992Z,20.90
2019-05-29T11:53:07.475Z,20.90
2019-05-29T11:55:37.883Z,20.30
2019-05-29T11:58:08.237Z,19.80
2019-05-29T12:00:38.783Z,19.60
2019-05-29T12:03:09.137Z,19.50
2019-05-29T12:05:39.859Z,19.40
2019-05-29T12:08:10.158Z,19.20
2019-05-29T12:10:40.810Z,18.70
2019-05-29T12:13:11.235Z,18.50
2019-05-29T12:15:41.676Z,18.50
2019-05-29T12:18:23.459Z,18.40
2019-05-29T12:20:44.284Z,18.40
2019-05-29T12:23:26.008Z,18.40
2019-05-29T12:25:46.553Z,18.60
2019-05-29T12:28:16.953Z,18.90
2019-05-29T12:30:47.176Z,19.40
2019-05-29T12:33:17.281Z,18.90
2019-05-29T12:35:50.067Z,18.50
2019-05-29T12:38:19.043Z,18.20
2019-05-29T12:40:49.257Z,17.90
2019-05-29T12:43:27.098Z,18.20
2019-05-29T12:45:51.567Z,18.70
2019-05-29T12:48:21.865Z,19.00
2019-05-29T12:50:53.852Z,18.90
2019-05-29T12:53:30.359Z,18.70
2019-05-29T12:55:58.319Z,18.40
2019-05-29T12:58:29.046Z,18.00
2019-05-29T13:01:02.806Z,17.60
2019-05-29T13:03:32.501Z,18.00
2019-05-29T13:06:02.913Z,18.50
2019-05-29T13:08:33.090Z,19.20
2019-05-29T13:11:04.968Z,19.80
2019-05-29T13:13:35.214Z,20.00
2019-05-29T13:16:05.679Z,19.90
2019-05-29T13:18:35.843Z,19.50
2019-05-29T13:21:06.145Z,19.70
2019-05-29T13:23:44.825Z,20.00
2019-05-29T13:26:08.364Z,19.40
2019-05-29T13:28:38.952Z,19.30
2019-05-29T13:31:09.311Z,19.10
2019-05-29T13:33:39.525Z,19.10
2019-05-29T13:36:09.751Z,19.20
2019-05-29T13:38:39.999Z,19.60
2019-05-29T13:41:10.059Z,19.60
2019-05-29T13:43:40.448Z,19.80
2019-05-29T13:46:10.862Z,20.10
2019-05-29T13:48:41.096Z,20.30
2019-05-29T13:51:11.261Z,20.40
2019-05-29T13:53:41.329Z,20.00
2019-05-29T13:56:11.765Z,19.50
2019-05-29T13:58:41.968Z,18.80
2019-05-29T14:01:12.386Z,18.60
2019-05-29T14:03:42.565Z,18.40
2019-05-29T14:06:12.825Z,18.20
2019-05-29T14:08:42.899Z,18.20
2019-05-29T14:11:13.000Z,18.40
2019-05-29T14:13:43.100Z,18.30
2019-05-29T14:16:13.123Z,18.30
2019-05-29T14:18:43.369Z,18.10
2019-05-29T14:21:15.480Z,18.20
2019-05-29T14:23:45.974Z,18.20
2019-05-29T14:26:16.408Z,18.20
2019-05-29T14:28:46.656Z,17.80
2019-05-29T14:31:16.934Z,17.60
2019-05-29T14:33:47.029Z,17.80
2019-05-29T14:36:17.292Z,18.10
2019-05-29T14:38:47.978Z,18.30
2019-05-29T14:41:18.111Z,18.50
2019-05-29T14:43:48.423Z,18.20
2019-05-29T14:46:18.972Z,18.10
2019-05-29T14:48:49.198Z,18.20
2019-05-29T14:51:19.278Z,18.30
2019-05-29T14:53:49.418Z,18.50
2019-05-29T14:56:19.673Z,18.50
2019-05-29T14:58:49.938Z,18.40
2019-05-29T15:01:20.225Z,18.10
2019-05-29T15:03:50.539Z,17.70
2019-05-29T15:06:20.730Z,17.60
2019-05-29T15:08:50.714Z,17.50
2019-05-29T15:11:20.846Z,17.50
2019-05-29T15:13:51.201Z,17.60
2019-05-29T15:16:21.771Z,17.50
2019-05-29T15:18:52.321Z,17.60
2019-05-29T15:21:22.867Z,17.90
2019-05-29T15:23:53.320Z,17.80
2019-05-29T15:26:23.539Z,17.90
2019-05-29T15:28:54.315Z,17.80
2019-05-29T15:31:24.715Z,17.90
2019-05-29T15:33:55.086Z,17.90
2019-05-29T15:36:25.713Z,17.60
2019-05-29T15:38:55.928Z,17.30
2019-05-29T15:41:27.913Z,17.10
2019-05-29T15:43:58.048Z,16.90
2019-05-29T15:46:28.476Z,16.80
2019-05-29T15:48:58.741Z,17.10
2019-05-29T15:51:29.275Z,17.40
2019-05-29T15:53:59.686Z,17.40
2019-05-29T15:56:30.310Z,17.40
2019-05-29T15:59:00.617Z,17.40
2019-05-29T16:01:30.778Z,17.30
2019-05-29T16:04:00.902Z,17.20
2019-05-29T16:06:30.916Z,17.10
2019-05-29T16:09:01.059Z,17.10
2019-05-29T16:11:31.219Z,17.10
2019-05-29T16:14:01.527Z,17.10
2019-05-29T16:16:31.751Z,17.20
2019-05-29T16:19:01.809Z,17.30
2019-05-29T16:21:32.031Z,17.30
2019-05-29T16:24:02.040Z,17.30
2019-05-29T16:26:32.359Z,17.20
2019-05-29T16:29:02.493Z,16.90
2019-05-29T16:31:32.916Z,16.80
2019-05-29T16:34:03.350Z,16.60
2019-05-29T16:36:33.541Z,16.60
2019-05-29T16:39:04.916Z,16.80
2019-05-29T16:41:35.171Z,16.70
2019-05-29T16:44:06.019Z,16.90
2019-05-29T16:46:36.418Z,17.00
2019-05-29T16:49:06.644Z,17.00
2019-05-29T16:51:36.788Z,16.90
2019-05-29T16:54:06.966Z,17.10
2019-05-29T16:56:37.400Z,17.10
2019-05-29T16:59:07.567Z,16.90
2019-05-29T17:01:37.722Z,16.90
2019-05-29T17:04:07.770Z,16.80
2019-05-29T17:06:38.358Z,16.70
2019-05-29T17:09:10.148Z,16.70
2019-05-29T17:11:40.341Z,16.60
2019-05-29T17:14:10.814Z,16.60
2019-05-29T17:16:41.029Z,16.50
2019-05-29T17:19:11.133Z,16.40
2019-05-29T17:21:41.172Z,16.30
2019-05-29T17:24:13.055Z,16.30
2019-05-29T17:26:43.235Z,16.20
2019-05-29T17:29:14.618Z,16.20
2019-05-29T17:31:44.905Z,16.00
2019-05-29T17:34:14.933Z,15.90
2019-05-29T17:36:45.063Z,16.00
2019-05-29T17:39:15.495Z,15.90
2019-05-29T17:41:45.696Z,15.80
2019-05-29T17:44:17.315Z,15.80
2019-05-29T17:46:47.669Z,15.80
2019-05-29T17:49:17.927Z,15.90
2019-05-29T17:51:48.230Z,15.70
2019-05-29T17:54:18.333Z,15.80
2019-05-29T17:56:48.478Z,15.90
2019-05-29T17:59:20.037Z,15.90
2019-05-29T18:01:50.437Z,15.90
2019-05-29T18:04:20.449Z,15.90
2019-05-29T18:06:50.596Z,16.00
2019-05-29T18:09:25.574Z,16.00
2019-05-29T18:11:52.632Z,16.00
2019-05-29T18:14:23.285Z,15.90
2019-05-29T18:16:56.462Z,15.90
2019-05-29T18:19:27.980Z,15.70
2019-05-29T18:21:58.895Z,15.60
2019-05-29T18:24:29.027Z,15.40
2019-05-29T18:26:59.391Z,15.30
2019-05-29T18:29:29.920Z,15.30
2019-05-29T18:31:59.859Z,15.20
2019-05-29T18:34:29.893Z,15.00
2019-05-29T18:36:59.935Z,14.80
2019-05-29T18:39:30.030Z,14.70
2019-05-29T18:42:00.436Z,14.60
2019-05-29T18:44:30.657Z,14.50
2019-05-29T18:47:00.783Z,14.30
2019-05-29T18:49:30.905Z,14.20
2019-05-29T18:52:01.381Z,14.20
2019-05-29T18:54:32.978Z,14.10
2019-05-29T18:57:15.364Z,14.00
2019-05-29T18:59:36.653Z,13.90
2019-05-29T19:02:06.966Z,13.80
2019-05-29T19:04:37.054Z,13.70
2019-05-29T19:07:07.408Z,13.50
2019-05-29T19:09:37.653Z,13.40
2019-05-29T19:12:07.847Z,13.30
2019-05-29T19:14:38.099Z,13.20
2019-05-29T19:17:08.213Z,13.10
2019-05-29T19:19:38.387Z,12.90
2019-05-29T19:22:08.508Z,12.90
2019-05-29T19:24:38.768Z,12.70
2019-05-29T19:27:08.961Z,12.60
2019-05-29T19:29:39.002Z,12.40
2019-05-29T19:32:09.150Z,12.30
2019-05-29T19:34:39.432Z,12.20
2019-05-29T19:37:09.687Z,12.10
2019-05-29T19:39:40.954Z,12.00
2019-05-29T19:42:11.169Z,12.00
2019-05-29T19:44:41.380Z,11.90
2019-05-29T19:47:11.799Z,11.70
2019-05-29T19:49:41.893Z,11.60
2019-05-29T19:52:11.949Z,11.50
2019-05-29T19:54:43.686Z,11.40
2019-05-29T19:57:13.912Z,11.40
2019-05-29T19:59:44.065Z,11.30
2019-05-29T20:02:14.147Z,11.20
2019-05-29T20:04:44.394Z,11.10
2019-05-29T20:07:14.487Z,11.00
2019-05-29T20:09:44.721Z,11.00
2019-05-29T20:12:14.829Z,10.90
2019-05-29T20:14:44.875Z,10.80
2019-05-29T20:17:15.098Z,10.80
2019-05-29T20:19:45.175Z,10.70
2019-05-29T20:22:15.532Z,10.60
2019-05-29T20:24:45.760Z,10.60
2019-05-29T20:27:17.182Z,10.50
2019-05-29T20:29:47.840Z,10.50
2019-05-29T20:32:18.040Z,10.40
2019-05-29T20:34:48.628Z,10.30
2019-05-29T20:37:19.078Z,10.30
2019-05-29T20:39:49.297Z,10.30
2019-05-29T20:42:19.564Z,10.10
2019-05-29T20:44:49.718Z,10.10
2019-05-29T20:47:20.090Z,10.00
2019-05-29T20:49:50.332Z,9.90
2019-05-29T20:52:20.527Z,9.90
2019-05-29T20:54:50.812Z,9.90
2019-05-29T20:57:21.306Z,9.90
2019-05-29T20:59:51.638Z,9.90
2019-05-29T21:02:21.963Z,9.90
2019-05-29T21:04:52.135Z,9.90
2019-05-29T21:07:22.407Z,9.90
2019-05-29T21:09:52.948Z,9.80
2019-05-29T21:12:23.351Z,9.80
2019-05-29T21:14:53.488Z,9.70
2019-05-29T21:17:23.804Z,9.70
2019-05-29T21:19:53.921Z,9.70
2019-05-29T21:22:24.226Z,9.70
2019-05-29T21:25:02.120Z,9.70
2019-05-29T21:27:26.426Z,9.80
2019-05-29T21:29:56.516Z,10.00
2019-05-29T21:32:26.642Z,10.10
2019-05-29T21:34:56.920Z,10.20
2019-05-29T21:37:27.065Z,10.20
2019-05-29T21:39:57.235Z,10.30
2019-05-29T21:42:27.416Z,10.30
2019-05-29T21:44:57.674Z,10.40
2019-05-29T21:47:27.910Z,10.40
2019-05-29T21:49:58.117Z,10.40
2019-05-29T21:52:28.563Z,10.40
2019-05-29T21:54:58.663Z,10.40
2019-05-29T21:57:29.011Z,10.40
2019-05-29T21:59:59.231Z,10.40
2019-05-29T22:02:29.850Z,10.40
2019-05-29T22:05:00.202Z,10.40
2019-05-29T22:07:30.255Z,10.30
2019-05-29T22:10:00.948Z,10.30
2019-05-29T22:12:30.974Z,10.30
2019-05-29T22:15:02.515Z,10.30
2019-05-29T22:17:33.040Z,10.30
2019-05-29T22:20:05.001Z,10.30
2019-05-29T22:22:35.191Z,10.30
2019-05-29T22:25:08.795Z,10.30
2019-05-29T22:27:39.257Z,10.30
2019-05-29T22:30:10.239Z,10.20
2019-05-29T22:32:40.500Z,10.30
2019-05-29T22:35:11.162Z,10.30
2019-05-29T22:37:41.349Z,10.30
2019-05-29T22:40:11.975Z,10.40
2019-05-29T22:42:42.925Z,10.40
2019-05-29T22:45:13.373Z,10.40
2019-05-29T22:47:43.406Z,10.30
2019-05-29T22:50:14.915Z,10.20
2019-05-29T22:52:45.262Z,10.20
2019-05-29T22:55:15.608Z,10.20
2019-05-29T22:57:45.830Z,10.20
2019-05-29T23:00:17.147Z,10.20
2019-05-29T23:02:47.271Z,10.30
2019-05-29T23:05:17.513Z,10.30
2019-05-29T23:07:47.514Z,10.30
2019-05-29T23:10:17.991Z,10.20
2019-05-29T23:12:48.264Z,10.20
2019-05-29T23:15:20.008Z,10.30
2019-05-29T23:17:50.038Z,10.20
2019-05-29T23:20:20.252Z,10.20
2019-05-29T23:22:50.355Z,10.20
2019-05-29T23:25:20.498Z,10.10
2019-05-29T23:27:50.744Z,10.10
2019-05-29T23:30:20.951Z,10.20
2019-05-29T23:32:51.292Z,10.20
2019-05-29T23:35:21.572Z,10.30
2019-05-29T23:37:53.028Z,10.40
2019-05-29T23:40:23.257Z,10.40
2019-05-29T23:42:53.489Z,10.40
2019-05-29T23:45:23.812Z,10.50
2019-05-29T23:47:55.323Z,10.60
2019-05-29T23:50:25.710Z,10.50
2019-05-29T23:52:56.021Z,10.50
2019-05-29T23:55:26.248Z,10.60
2019-05-29T23:57:56.270Z,10.50
